sensor_id;sensor_type;location;lat;lon;timestamp;pressure;altitude;pressure_sealevel;temperature;humidity
47811;BME280;33575;52.600;7.318;2023-02-19T00:01:39;101309.70;;;9.48;100.00
47811;BME280;33575;52.600;7.318;2023-02-19T00:04:11;101308.75;;;9.49;100.00
47811;BME280;33575;52.600;7.318;2023-02-19T00:06:39;101311.72;;;9.52;100.00
47811;BME280;33575;52.600;7.318;2023-02-19T00:09:10;101309.82;;;9.55;100.00
47811;BME280;33575;52.600;7.318;2023-02-19T00:11:40;101312.30;;;9.49;100.00
47811;BME280;33575;52.600;7.318;2023-02-19T00:14:14;101311.29;;;9.46;100.00
47811;BME280;33575;52.600;7.318;2023-02-19T00:16:41;101314.22;;;9.51;100.00
47811;BME280;33575;52.600;7.318;2023-02-19T00:19:14;101316.99;;;9.39;100.00
47811;BME280;33575;52.600;7.318;2023-02-19T00:21:42;101309.52;;;9.45;100.00
47811;BME280;33575;52.600;7.318;2023-02-19T00:24:13;101311.41;;;9.46;100.00
47811;BME280;33575;52.600;7.318;2023-02-19T00:26:43;101315.24;;;9.51;100.00
47811;BME280;33575;52.600;7.318;2023-02-19T00:29:14;101315.49;;;9.52;100.00
47811;BME280;33575;52.600;7.318;2023-02-19T00:31:44;101318.67;;;9.50;100.00
47811;BME280;33575;52.600;7.318;2023-02-19T00:34:13;101323.00;;;9.49;100.00
47811;BME280;33575;52.600;7.318;2023-02-19T00:36:44;101325.69;;;9.45;100.00
47811;BME280;33575;52.600;7.318;2023-02-19T00:39:15;101319.25;;;9.47;100.00
47811;BME280;33575;52.600;7.318;2023-02-19T00:41:44;101317.21;;;9.44;100.00
47811;BME280;33575;52.600;7.318;2023-02-19T00:44:15;101320.60;;;9.39;100.00
47811;BME280;33575;52.600;7.318;2023-02-19T00:46:46;101313.44;;;9.24;100.00
47811;BME280;33575;52.600;7.318;2023-02-19T00:49:19;101308.28;;;9.32;100.00
47811;BME280;33575;52.600;7.318;2023-02-19T00:51:47;101311.85;;;9.25;100.00
47811;BME280;33575;52.600;7.318;2023-02-19T00:54:17;101308.29;;;9.22;100.00
47811;BME280;33575;52.600;7.318;2023-02-19T00:56:47;101310.45;;;9.24;100.00
47811;BME280;33575;52.600;7.318;2023-02-19T00:59:17;101308.19;;;9.23;100.00
47811;BME280;33575;52.600;7.318;2023-02-19T01:01:47;101307.17;;;9.25;100.00
47811;BME280;33575;52.600;7.318;2023-02-19T01:04:18;101308.44;;;9.23;100.00
47811;BME280;33575;52.600;7.318;2023-02-19T01:06:48;101311.28;;;9.12;100.00
47811;BME280;33575;52.600;7.318;2023-02-19T01:09:18;101310.02;;;9.21;100.00
47811;BME280;33575;52.600;7.318;2023-02-19T01:11:49;101307.77;;;9.22;100.00
47811;BME280;33575;52.600;7.318;2023-02-19T01:14:19;101307.51;;;9.24;100.00
47811;BME280;33575;52.600;7.318;2023-02-19T01:16:49;101306.34;;;9.13;100.00
47811;BME280;33575;52.600;7.318;2023-02-19T01:19:20;101308.26;;;9.21;100.00
47811;BME280;33575;52.600;7.318;2023-02-19T01:21:50;101313.98;;;9.31;100.00
47811;BME280;33575;52.600;7.318;2023-02-19T01:24:20;101318.23;;;9.35;100.00
47811;BME280;33575;52.600;7.318;2023-02-19T01:26:50;101316.92;;;9.40;100.00
47811;BME280;33575;52.600;7.318;2023-02-19T01:29:20;101315.64;;;9.38;100.00
47811;BME280;33575;52.600;7.318;2023-02-19T01:31:51;101318.52;;;9.34;100.00
47811;BME280;33575;52.600;7.318;2023-02-19T01:34:22;101317.18;;;9.30;100.00
47811;BME280;33575;52.600;7.318;2023-02-19T01:36:52;101313.14;;;9.18;100.00
47811;BME280;33575;52.600;7.318;2023-02-19T01:39:23;101312.36;;;9.17;100.00
47811;BME280;33575;52.600;7.318;2023-02-19T01:41:53;101311.02;;;9.20;100.00
47811;BME280;33575;52.600;7.318;2023-02-19T01:46:55;101307.37;;;9.26;100.00
47811;BME280;33575;52.600;7.318;2023-02-19T01:49:27;101308.13;;;9.27;100.00
47811;BME280;33575;52.600;7.318;2023-02-19T01:51:58;101304.77;;;9.31;100.00
47811;BME280;33575;52.600;7.318;2023-02-19T01:54:28;101303.48;;;9.28;100.00
47811;BME280;33575;52.600;7.318;2023-02-19T01:56:58;101306.13;;;9.28;100.00
47811;BME280;33575;52.600;7.318;2023-02-19T01:59:27;101305.36;;;9.32;100.00
47811;BME280;33575;52.600;7.318;2023-02-19T02:01:57;101305.60;;;9.24;100.00
47811;BME280;33575;52.600;7.318;2023-02-19T02:04:29;101309.09;;;8.95;100.00
47811;BME280;33575;52.600;7.318;2023-02-19T02:07:04;101307.65;;;8.99;100.00
47811;BME280;33575;52.600;7.318;2023-02-19T02:09:30;101304.60;;;9.07;100.00
47811;BME280;33575;52.600;7.318;2023-02-19T02:11:59;101302.65;;;9.14;100.00
47811;BME280;33575;52.600;7.318;2023-02-19T02:14:34;101304.46;;;9.14;100.00
47811;BME280;33575;52.600;7.318;2023-02-19T02:17:11;101302.52;;;9.18;100.00
47811;BME280;33575;52.600;7.318;2023-02-19T02:19:47;101307.84;;;8.98;100.00
47811;BME280;33575;52.600;7.318;2023-02-19T02:22:06;101307.83;;;9.06;100.00
47811;BME280;33575;52.600;7.318;2023-02-19T02:24:47;101309.21;;;9.09;100.00
47811;BME280;33575;52.600;7.318;2023-02-19T02:27:16;101299.70;;;8.91;100.00
47811;BME280;33575;52.600;7.318;2023-02-19T02:32:06;101304.83;;;9.15;100.00
47811;BME280;33575;52.600;7.318;2023-02-19T02:34:40;101300.60;;;9.11;100.00
47811;BME280;33575;52.600;7.318;2023-02-19T02:37:06;101304.56;;;9.09;100.00
47811;BME280;33575;52.600;7.318;2023-02-19T02:39:37;101307.00;;;9.01;100.00
47811;BME280;33575;52.600;7.318;2023-02-19T02:42:09;101302.12;;;9.05;100.00
47811;BME280;33575;52.600;7.318;2023-02-19T02:44:41;101308.78;;;9.01;100.00
47811;BME280;33575;52.600;7.318;2023-02-19T02:47:09;101307.84;;;9.14;100.00
47811;BME280;33575;52.600;7.318;2023-02-19T02:49:38;101312.18;;;9.15;100.00
47811;BME280;33575;52.600;7.318;2023-02-19T02:52:09;101312.11;;;9.12;100.00
47811;BME280;33575;52.600;7.318;2023-02-19T02:54:39;101315.38;;;9.15;100.00
47811;BME280;33575;52.600;7.318;2023-02-19T02:57:11;101316.50;;;9.08;100.00
47811;BME280;33575;52.600;7.318;2023-02-19T02:59:41;101314.71;;;9.12;100.00
47811;BME280;33575;52.600;7.318;2023-02-19T03:02:14;101322.67;;;9.12;100.00
47811;BME280;33575;52.600;7.318;2023-02-19T03:04:47;101322.70;;;8.98;100.00
47811;BME280;33575;52.600;7.318;2023-02-19T03:07:12;101325.40;;;8.86;100.00
47811;BME280;33575;52.600;7.318;2023-02-19T03:09:43;101326.80;;;8.66;100.00
47811;BME280;33575;52.600;7.318;2023-02-19T03:12:14;101331.03;;;8.59;100.00
47811;BME280;33575;52.600;7.318;2023-02-19T03:14:47;101334.01;;;8.66;100.00
47811;BME280;33575;52.600;7.318;2023-02-19T03:17:17;101334.49;;;8.53;100.00
47811;BME280;33575;52.600;7.318;2023-02-19T03:19:49;101331.61;;;8.40;100.00
47811;BME280;33575;52.600;7.318;2023-02-19T03:22:17;101345.93;;;8.38;100.00
47811;BME280;33575;52.600;7.318;2023-02-19T03:24:49;101339.77;;;8.39;100.00
47811;BME280;33575;52.600;7.318;2023-02-19T03:27:17;101343.86;;;8.37;100.00
47811;BME280;33575;52.600;7.318;2023-02-19T03:29:48;101343.89;;;8.54;100.00
47811;BME280;33575;52.600;7.318;2023-02-19T03:32:22;101347.53;;;8.31;100.00
47811;BME280;33575;52.600;7.318;2023-02-19T03:34:51;101351.82;;;8.11;100.00
47811;BME280;33575;52.600;7.318;2023-02-19T03:37:26;101351.63;;;8.07;100.00
47811;BME280;33575;52.600;7.318;2023-02-19T03:39:48;101359.40;;;8.29;100.00
47811;BME280;33575;52.600;7.318;2023-02-19T03:42:28;101363.80;;;8.23;100.00
47811;BME280;33575;52.600;7.318;2023-02-19T03:47:26;101365.44;;;8.12;100.00
47811;BME280;33575;52.600;7.318;2023-02-19T03:49:55;101368.85;;;8.25;100.00
47811;BME280;33575;52.600;7.318;2023-02-19T03:52:27;101376.17;;;8.04;100.00
47811;BME280;33575;52.600;7.318;2023-02-19T03:54:56;101373.67;;;7.99;100.00
47811;BME280;33575;52.600;7.318;2023-02-19T03:57:32;101378.36;;;7.98;100.00
47811;BME280;33575;52.600;7.318;2023-02-19T03:59:57;101380.79;;;8.10;100.00
47811;BME280;33575;52.600;7.318;2023-02-19T04:02:28;101381.92;;;8.05;100.00
47811;BME280;33575;52.600;7.318;2023-02-19T04:04:59;101384.03;;;8.06;100.00
47811;BME280;33575;52.600;7.318;2023-02-19T04:07:26;101386.47;;;8.08;100.00
47811;BME280;33575;52.600;7.318;2023-02-19T04:09:55;101395.57;;;8.04;100.00
47811;BME280;33575;52.600;7.318;2023-02-19T04:12:26;101403.01;;;7.80;100.00
47811;BME280;33575;52.600;7.318;2023-02-19T04:15:00;101399.16;;;7.84;100.00
47811;BME280;33575;52.600;7.318;2023-02-19T04:17:30;101404.33;;;7.97;100.00
47811;BME280;33575;52.600;7.318;2023-02-19T04:19:58;101410.39;;;8.00;100.00
47811;BME280;33575;52.600;7.318;2023-02-19T04:22:28;101412.68;;;7.89;100.00
47811;BME280;33575;52.600;7.318;2023-02-19T04:24:58;101416.20;;;8.04;100.00
47811;BME280;33575;52.600;7.318;2023-02-19T04:27:29;101424.15;;;7.77;100.00
47811;BME280;33575;52.600;7.318;2023-02-19T04:30:00;101427.27;;;7.83;100.00
47811;BME280;33575;52.600;7.318;2023-02-19T04:32:30;101431.58;;;7.79;100.00
47811;BME280;33575;52.600;7.318;2023-02-19T04:35:01;101439.13;;;7.56;100.00
47811;BME280;33575;52.600;7.318;2023-02-19T04:37:31;101442.59;;;7.78;100.00
47811;BME280;33575;52.600;7.318;2023-02-19T04:40:02;101442.78;;;7.67;100.00
47811;BME280;33575;52.600;7.318;2023-02-19T04:42:33;101453.29;;;7.76;100.00
47811;BME280;33575;52.600;7.318;2023-02-19T04:45:04;101456.71;;;7.74;100.00
47811;BME280;33575;52.600;7.318;2023-02-19T04:47:34;101461.40;;;7.50;100.00
47811;BME280;33575;52.600;7.318;2023-02-19T04:50:05;101478.70;;;7.35;100.00
47811;BME280;33575;52.600;7.318;2023-02-19T04:52:35;101490.27;;;7.30;100.00
47811;BME280;33575;52.600;7.318;2023-02-19T04:55:07;101495.49;;;6.91;100.00
47811;BME280;33575;52.600;7.318;2023-02-19T04:57:36;101493.57;;;6.72;100.00
47811;BME280;33575;52.600;7.318;2023-02-19T05:00:09;101503.71;;;6.57;100.00
47811;BME280;33575;52.600;7.318;2023-02-19T05:02:38;101512.07;;;6.14;100.00
47811;BME280;33575;52.600;7.318;2023-02-19T05:05:08;101519.33;;;6.01;100.00
47811;BME280;33575;52.600;7.318;2023-02-19T05:07:39;101525.97;;;5.95;100.00
47811;BME280;33575;52.600;7.318;2023-02-19T05:10:10;101529.26;;;6.12;100.00
47811;BME280;33575;52.600;7.318;2023-02-19T05:12:40;101535.79;;;5.92;100.00
47811;BME280;33575;52.600;7.318;2023-02-19T05:15:11;101545.69;;;6.01;100.00
47811;BME280;33575;52.600;7.318;2023-02-19T05:17:42;101550.73;;;6.00;100.00
47811;BME280;33575;52.600;7.318;2023-02-19T05:20:13;101559.88;;;6.04;100.00
47811;BME280;33575;52.600;7.318;2023-02-19T05:22:43;101566.55;;;6.12;100.00
47811;BME280;33575;52.600;7.318;2023-02-19T05:25:14;101566.26;;;6.21;100.00
47811;BME280;33575;52.600;7.318;2023-02-19T05:27:45;101571.19;;;6.17;100.00
47811;BME280;33575;52.600;7.318;2023-02-19T05:30:15;101576.73;;;6.08;100.00
47811;BME280;33575;52.600;7.318;2023-02-19T05:32:46;101582.83;;;6.02;100.00
47811;BME280;33575;52.600;7.318;2023-02-19T05:35:17;101588.62;;;6.02;100.00
47811;BME280;33575;52.600;7.318;2023-02-19T05:37:47;101592.05;;;5.89;100.00
47811;BME280;33575;52.600;7.318;2023-02-19T05:40:18;101593.07;;;5.91;100.00
47811;BME280;33575;52.600;7.318;2023-02-19T05:42:49;101598.38;;;5.78;100.00
47811;BME280;33575;52.600;7.318;2023-02-19T05:45:19;101604.86;;;5.88;100.00
47811;BME280;33575;52.600;7.318;2023-02-19T05:47:50;101608.67;;;5.90;100.00
47811;BME280;33575;52.600;7.318;2023-02-19T05:50:21;101621.74;;;5.59;100.00
47811;BME280;33575;52.600;7.318;2023-02-19T05:52:52;101628.55;;;5.60;100.00
47811;BME280;33575;52.600;7.318;2023-02-19T05:55:22;101633.92;;;5.38;100.00
47811;BME280;33575;52.600;7.318;2023-02-19T05:57:53;101641.06;;;5.30;100.00
47811;BME280;33575;52.600;7.318;2023-02-19T06:00:24;101644.71;;;5.38;100.00
47811;BME280;33575;52.600;7.318;2023-02-19T06:02:55;101645.76;;;5.27;100.00
47811;BME280;33575;52.600;7.318;2023-02-19T06:05:25;101645.27;;;5.30;100.00
47811;BME280;33575;52.600;7.318;2023-02-19T06:07:56;101649.10;;;5.34;100.00
47811;BME280;33575;52.600;7.318;2023-02-19T06:10:27;101654.58;;;5.43;100.00
47811;BME280;33575;52.600;7.318;2023-02-19T06:12:57;101658.20;;;5.35;100.00
47811;BME280;33575;52.600;7.318;2023-02-19T06:15:28;101661.43;;;5.29;100.00
47811;BME280;33575;52.600;7.318;2023-02-19T06:17:59;101668.19;;;5.09;100.00
47811;BME280;33575;52.600;7.318;2023-02-19T06:20:30;101675.75;;;5.03;100.00
47811;BME280;33575;52.600;7.318;2023-02-19T06:23:00;101687.50;;;5.19;100.00
47811;BME280;33575;52.600;7.318;2023-02-19T06:25:31;101693.54;;;5.00;100.00
47811;BME280;33575;52.600;7.318;2023-02-19T06:28:02;101696.11;;;5.07;100.00
47811;BME280;33575;52.600;7.318;2023-02-19T06:33:03;101702.64;;;5.06;100.00
47811;BME280;33575;52.600;7.318;2023-02-19T06:35:35;101715.42;;;4.80;100.00
47811;BME280;33575;52.600;7.318;2023-02-19T06:38:04;101727.93;;;4.76;100.00
47811;BME280;33575;52.600;7.318;2023-02-19T06:40:35;101733.44;;;4.76;100.00
47811;BME280;33575;52.600;7.318;2023-02-19T06:43:06;101734.43;;;4.78;100.00
47811;BME280;33575;52.600;7.318;2023-02-19T06:45:36;101740.15;;;4.76;100.00
47811;BME280;33575;52.600;7.318;2023-02-19T06:48:07;101744.18;;;4.78;100.00
47811;BME280;33575;52.600;7.318;2023-02-19T06:50:37;101748.50;;;4.97;100.00
47811;BME280;33575;52.600;7.318;2023-02-19T06:53:09;101755.43;;;5.01;100.00
47811;BME280;33575;52.600;7.318;2023-02-19T06:55:38;101760.34;;;4.97;100.00
47811;BME280;33575;52.600;7.318;2023-02-19T06:58:08;101763.49;;;4.99;100.00
47811;BME280;33575;52.600;7.318;2023-02-19T07:00:39;101768.12;;;4.85;100.00
47811;BME280;33575;52.600;7.318;2023-02-19T07:03:10;101771.91;;;4.95;100.00
47811;BME280;33575;52.600;7.318;2023-02-19T07:05:40;101775.94;;;5.06;100.00
47811;BME280;33575;52.600;7.318;2023-02-19T07:08:11;101776.39;;;5.09;100.00
47811;BME280;33575;52.600;7.318;2023-02-19T07:10:42;101784.04;;;4.99;100.00
47811;BME280;33575;52.600;7.318;2023-02-19T07:13:12;101788.44;;;4.97;100.00
47811;BME280;33575;52.600;7.318;2023-02-19T07:15:43;101795.27;;;5.01;100.00
47811;BME280;33575;52.600;7.318;2023-02-19T07:18:14;101801.12;;;5.00;100.00
47811;BME280;33575;52.600;7.318;2023-02-19T07:20:45;101818.14;;;4.79;100.00
47811;BME280;33575;52.600;7.318;2023-02-19T07:23:15;101826.66;;;4.81;100.00
47811;BME280;33575;52.600;7.318;2023-02-19T07:25:46;101835.24;;;4.93;100.00
47811;BME280;33575;52.600;7.318;2023-02-19T07:28:17;101846.27;;;4.71;100.00
47811;BME280;33575;52.600;7.318;2023-02-19T07:30:48;101853.55;;;4.77;100.00
47811;BME280;33575;52.600;7.318;2023-02-19T07:33:19;101856.13;;;4.61;100.00
47811;BME280;33575;52.600;7.318;2023-02-19T07:35:49;101862.83;;;4.71;100.00
47811;BME280;33575;52.600;7.318;2023-02-19T07:38:21;101872.61;;;4.66;100.00
47811;BME280;33575;52.600;7.318;2023-02-19T07:40:50;101879.02;;;4.71;100.00
47811;BME280;33575;52.600;7.318;2023-02-19T07:43:21;101878.98;;;4.63;100.00
47811;BME280;33575;52.600;7.318;2023-02-19T07:45:52;101881.39;;;4.60;100.00
47811;BME280;33575;52.600;7.318;2023-02-19T07:48:22;101888.12;;;4.35;100.00
47811;BME280;33575;52.600;7.318;2023-02-19T07:50:54;101893.45;;;4.61;100.00
47811;BME280;33575;52.600;7.318;2023-02-19T07:53:25;101894.73;;;4.46;100.00
47811;BME280;33575;52.600;7.318;2023-02-19T07:55:58;101900.10;;;4.37;100.00
47811;BME280;33575;52.600;7.318;2023-02-19T07:58:25;101897.91;;;4.55;100.00
47811;BME280;33575;52.600;7.318;2023-02-19T08:00:56;101888.38;;;4.58;100.00
47811;BME280;33575;52.600;7.318;2023-02-19T08:03:27;101886.09;;;4.40;100.00
47811;BME280;33575;52.600;7.318;2023-02-19T08:05:57;101882.41;;;4.56;100.00
47811;BME280;33575;52.600;7.318;2023-02-19T08:08:28;101871.29;;;4.70;100.00
47811;BME280;33575;52.600;7.318;2023-02-19T08:11:00;101878.34;;;4.49;100.00
47811;BME280;33575;52.600;7.318;2023-02-19T08:13:30;101895.21;;;4.49;100.00
47811;BME280;33575;52.600;7.318;2023-02-19T08:16:10;101905.71;;;4.60;100.00
47811;BME280;33575;52.600;7.318;2023-02-19T08:18:31;101910.68;;;4.63;100.00
47811;BME280;33575;52.600;7.318;2023-02-19T08:21:01;101917.83;;;4.49;100.00
47811;BME280;33575;52.600;7.318;2023-02-19T08:23:32;101922.29;;;4.53;100.00
47811;BME280;33575;52.600;7.318;2023-02-19T08:26:03;101923.77;;;4.62;100.00
47811;BME280;33575;52.600;7.318;2023-02-19T08:28:33;101918.42;;;4.75;100.00
47811;BME280;33575;52.600;7.318;2023-02-19T08:31:05;101926.46;;;4.92;100.00
47811;BME280;33575;52.600;7.318;2023-02-19T08:33:34;101922.50;;;5.07;100.00
47811;BME280;33575;52.600;7.318;2023-02-19T08:36:07;101927.28;;;5.20;100.00
47811;BME280;33575;52.600;7.318;2023-02-19T08:38:36;101934.18;;;5.29;100.00
47811;BME280;33575;52.600;7.318;2023-02-19T08:41:08;101940.57;;;5.34;99.33
47811;BME280;33575;52.600;7.318;2023-02-19T08:43:37;101944.99;;;5.41;100.00
47811;BME280;33575;52.600;7.318;2023-02-19T08:46:09;101938.38;;;5.47;100.00
47811;BME280;33575;52.600;7.318;2023-02-19T08:48:39;101943.64;;;5.59;98.57
47811;BME280;33575;52.600;7.318;2023-02-19T08:51:11;101950.04;;;5.69;98.41
47811;BME280;33575;52.600;7.318;2023-02-19T08:53:40;101953.38;;;5.79;98.87
47811;BME280;33575;52.600;7.318;2023-02-19T08:56:12;101963.80;;;5.93;98.34
47811;BME280;33575;52.600;7.318;2023-02-19T08:58:42;101971.53;;;6.01;97.49
47811;BME280;33575;52.600;7.318;2023-02-19T09:01:14;101973.35;;;6.08;97.26
47811;BME280;33575;52.600;7.318;2023-02-19T09:03:43;101973.30;;;6.10;95.99
47811;BME280;33575;52.600;7.318;2023-02-19T09:06:15;101985.26;;;6.11;100.00
47811;BME280;33575;52.600;7.318;2023-02-19T09:08:45;101994.53;;;6.23;99.87
47811;BME280;33575;52.600;7.318;2023-02-19T09:11:15;101999.70;;;6.27;98.23
47811;BME280;33575;52.600;7.318;2023-02-19T09:13:46;101999.70;;;6.33;97.62
47811;BME280;33575;52.600;7.318;2023-02-19T09:16:16;101999.47;;;6.36;96.65
47811;BME280;33575;52.600;7.318;2023-02-19T09:18:47;102008.04;;;6.40;96.31
47811;BME280;33575;52.600;7.318;2023-02-19T09:21:18;102023.33;;;6.26;93.05
47811;BME280;33575;52.600;7.318;2023-02-19T09:23:49;102030.13;;;6.23;95.30
47811;BME280;33575;52.600;7.318;2023-02-19T09:26:19;102040.23;;;6.23;96.11
47811;BME280;33575;52.600;7.318;2023-02-19T09:28:50;102049.19;;;6.31;95.28
47811;BME280;33575;52.600;7.318;2023-02-19T09:31:21;102055.70;;;6.34;94.77
47811;BME280;33575;52.600;7.318;2023-02-19T09:33:51;102062.51;;;6.35;94.51
47811;BME280;33575;52.600;7.318;2023-02-19T09:36:22;102061.06;;;6.38;94.23
47811;BME280;33575;52.600;7.318;2023-02-19T09:38:53;102054.69;;;6.39;95.24
47811;BME280;33575;52.600;7.318;2023-02-19T09:41:29;102060.44;;;6.40;94.92
47811;BME280;33575;52.600;7.318;2023-02-19T09:43:54;102076.19;;;6.46;94.24
47811;BME280;33575;52.600;7.318;2023-02-19T09:46:30;102089.94;;;6.50;94.04
47811;BME280;33575;52.600;7.318;2023-02-19T09:49:02;102095.72;;;6.53;94.39
47811;BME280;33575;52.600;7.318;2023-02-19T09:51:27;102096.96;;;6.56;92.36
47811;BME280;33575;52.600;7.318;2023-02-19T09:53:57;102104.69;;;6.50;92.63
47811;BME280;33575;52.600;7.318;2023-02-19T09:56:28;102104.37;;;6.52;91.88
47811;BME280;33575;52.600;7.318;2023-02-19T09:58:59;102103.06;;;6.53;93.85
47811;BME280;33575;52.600;7.318;2023-02-19T10:01:31;102109.66;;;6.56;93.85
47811;BME280;33575;52.600;7.318;2023-02-19T10:03:59;102118.22;;;6.62;93.08
47811;BME280;33575;52.600;7.318;2023-02-19T10:06:31;102118.86;;;6.70;93.42
47811;BME280;33575;52.600;7.318;2023-02-19T10:09:12;102120.55;;;6.79;94.45
47811;BME280;33575;52.600;7.318;2023-02-19T10:11:31;102119.97;;;6.86;94.02
47811;BME280;33575;52.600;7.318;2023-02-19T10:14:04;102114.04;;;6.94;94.35
47811;BME280;33575;52.600;7.318;2023-02-19T10:16:33;102117.00;;;7.02;93.34
47811;BME280;33575;52.600;7.318;2023-02-19T10:19:03;102120.14;;;7.03;93.28
47811;BME280;33575;52.600;7.318;2023-02-19T10:21:37;102121.37;;;7.12;93.80
47811;BME280;33575;52.600;7.318;2023-02-19T10:24:06;102123.49;;;7.24;95.55
47811;BME280;33575;52.600;7.318;2023-02-19T10:26:35;102122.72;;;7.36;93.89
47811;BME280;33575;52.600;7.318;2023-02-19T10:29:06;102122.11;;;7.42;92.80
47811;BME280;33575;52.600;7.318;2023-02-19T10:31:37;102132.42;;;7.32;91.64
47811;BME280;33575;52.600;7.318;2023-02-19T10:34:16;102136.76;;;7.21;89.72
47811;BME280;33575;52.600;7.318;2023-02-19T10:36:39;102136.91;;;7.00;90.26
47811;BME280;33575;52.600;7.318;2023-02-19T10:41:40;102153.63;;;6.97;91.31
47811;BME280;33575;52.600;7.318;2023-02-19T10:44:14;102157.73;;;6.98;90.07
47811;BME280;33575;52.600;7.318;2023-02-19T10:46:42;102159.56;;;6.86;89.41
47811;BME280;33575;52.600;7.318;2023-02-19T10:49:21;102167.49;;;6.85;90.13
47811;BME280;33575;52.600;7.318;2023-02-19T10:51:43;102171.38;;;6.91;92.08
47811;BME280;33575;52.600;7.318;2023-02-19T10:54:16;102174.05;;;7.16;92.59
47811;BME280;33575;52.600;7.318;2023-02-19T10:56:43;102174.37;;;7.36;91.35
47811;BME280;33575;52.600;7.318;2023-02-19T10:59:22;102167.43;;;7.52;92.05
47811;BME280;33575;52.600;7.318;2023-02-19T11:01:53;102163.48;;;7.79;92.92
47811;BME280;33575;52.600;7.318;2023-02-19T11:04:16;102163.49;;;8.09;93.74
47811;BME280;33575;52.600;7.318;2023-02-19T11:06:46;102159.27;;;8.32;92.12
47811;BME280;33575;52.600;7.318;2023-02-19T11:09:25;102155.13;;;8.38;88.77
47811;BME280;33575;52.600;7.318;2023-02-19T11:11:50;102154.53;;;8.23;85.55
47811;BME280;33575;52.600;7.318;2023-02-19T11:14:19;102153.42;;;8.20;89.05
47811;BME280;33575;52.600;7.318;2023-02-19T11:16:50;102151.85;;;8.24;88.58
47811;BME280;33575;52.600;7.318;2023-02-19T11:19:23;102149.64;;;8.22;87.99
47811;BME280;33575;52.600;7.318;2023-02-19T11:21:50;102148.77;;;8.31;89.85
47811;BME280;33575;52.600;7.318;2023-02-19T11:24:26;102142.49;;;8.26;86.25
47811;BME280;33575;52.600;7.318;2023-02-19T11:26:50;102136.87;;;8.42;89.17
47811;BME280;33575;52.600;7.318;2023-02-19T11:29:22;102138.93;;;8.51;89.05
47811;BME280;33575;52.600;7.318;2023-02-19T11:31:52;102147.36;;;8.58;88.40
47811;BME280;33575;52.600;7.318;2023-02-19T11:34:26;102151.01;;;8.32;84.93
47811;BME280;33575;52.600;7.318;2023-02-19T11:39:27;102154.41;;;8.32;85.59
47811;BME280;33575;52.600;7.318;2023-02-19T11:42:06;102154.62;;;8.02;84.81
47811;BME280;33575;52.600;7.318;2023-02-19T11:44:33;102154.47;;;8.14;86.11
47811;BME280;33575;52.600;7.318;2023-02-19T11:47:06;102155.87;;;8.16;88.10
47811;BME280;33575;52.600;7.318;2023-02-19T11:49:34;102167.42;;;7.96;86.32
47811;BME280;33575;52.600;7.318;2023-02-19T11:52:08;102169.99;;;7.49;84.37
47811;BME280;33575;52.600;7.318;2023-02-19T11:54:43;102171.51;;;7.37;85.79
47811;BME280;33575;52.600;7.318;2023-02-19T11:57:05;102172.17;;;7.46;85.61
47811;BME280;33575;52.600;7.318;2023-02-19T11:59:34;102180.29;;;7.50;86.47
47811;BME280;33575;52.600;7.318;2023-02-19T12:04:42;102182.41;;;7.59;86.97
47811;BME280;33575;52.600;7.318;2023-02-19T12:07:08;102180.94;;;7.67;86.48
47811;BME280;33575;52.600;7.318;2023-02-19T12:09:43;102186.72;;;7.69;86.21
47811;BME280;33575;52.600;7.318;2023-02-19T12:12:13;102186.15;;;7.79;87.20
47811;BME280;33575;52.600;7.318;2023-02-19T12:14:45;102185.22;;;7.90;86.91
47811;BME280;33575;52.600;7.318;2023-02-19T12:17:09;102182.96;;;8.02;87.26
47811;BME280;33575;52.600;7.318;2023-02-19T12:19:43;102176.72;;;8.11;85.37
47811;BME280;33575;52.600;7.318;2023-02-19T12:22:18;102168.74;;;8.11;85.23
47811;BME280;33575;52.600;7.318;2023-02-19T12:24:45;102167.48;;;8.17;85.59
47811;BME280;33575;52.600;7.318;2023-02-19T12:27:16;102167.44;;;8.27;85.92
47811;BME280;33575;52.600;7.318;2023-02-19T12:29:48;102167.77;;;8.22;85.13
47811;BME280;33575;52.600;7.318;2023-02-19T12:32:20;102177.05;;;7.97;83.45
47811;BME280;33575;52.600;7.318;2023-02-19T12:37:19;102173.95;;;7.58;83.57
47811;BME280;33575;52.600;7.318;2023-02-19T12:39:44;102170.92;;;7.51;83.51
47811;BME280;33575;52.600;7.318;2023-02-19T12:42:27;102169.30;;;7.53;83.81
47811;BME280;33575;52.600;7.318;2023-02-19T12:44:44;102164.11;;;7.61;82.76
47811;BME280;33575;52.600;7.318;2023-02-19T12:47:15;102166.16;;;7.66;82.63
47811;BME280;33575;52.600;7.318;2023-02-19T12:49:43;102182.01;;;7.55;82.36
47811;BME280;33575;52.600;7.318;2023-02-19T12:52:16;102188.76;;;7.68;83.32
47811;BME280;33575;52.600;7.318;2023-02-19T12:54:45;102185.59;;;7.72;83.91
47811;BME280;33575;52.600;7.318;2023-02-19T12:57:17;102185.48;;;7.78;83.90
47811;BME280;33575;52.600;7.318;2023-02-19T12:59:47;102188.97;;;7.88;84.34
47811;BME280;33575;52.600;7.318;2023-02-19T13:02:18;102190.34;;;7.99;83.45
47811;BME280;33575;52.600;7.318;2023-02-19T13:04:50;102191.15;;;8.08;83.23
47811;BME280;33575;52.600;7.318;2023-02-19T13:07:18;102190.78;;;8.02;81.37
47811;BME280;33575;52.600;7.318;2023-02-19T13:09:49;102191.22;;;7.93;82.45
47811;BME280;33575;52.600;7.318;2023-02-19T13:12:21;102196.93;;;7.92;83.54
47811;BME280;33575;52.600;7.318;2023-02-19T13:14:50;102204.18;;;7.88;83.51
47811;BME280;33575;52.600;7.318;2023-02-19T13:17:23;102209.96;;;7.91;83.91
47811;BME280;33575;52.600;7.318;2023-02-19T13:19:52;102211.10;;;8.01;84.70
47811;BME280;33575;52.600;7.318;2023-02-19T13:22:26;102212.75;;;8.16;85.59
47811;BME280;33575;52.600;7.318;2023-02-19T13:24:50;102217.71;;;8.30;84.72
47811;BME280;33575;52.600;7.318;2023-02-19T13:30:05;102229.68;;;8.09;83.55
47811;BME280;33575;52.600;7.318;2023-02-19T13:35:03;102247.90;;;7.78;82.04